sensor_id;sensor_type;location;lat;lon;timestamp;pressure;altitude;pressure_sealevel;temperature;humidity
80333;BME280;69652;51.864;-2.246;2023-05-16T00:00:23;102454.06;;;10.72;59.09
80333;BME280;69652;51.864;-2.246;2023-05-16T00:02:50;102459.50;;;10.72;58.83
80333;BME280;69652;51.864;-2.246;2023-05-16T00:05:15;102457.50;;;10.58;59.36
80333;BME280;69652;51.864;-2.246;2023-05-16T00:07:42;102462.88;;;10.53;60.36
80333;BME280;69652;51.864;-2.246;2023-05-16T00:10:08;102467.97;;;10.44;60.62
80333;BME280;69652;51.864;-2.246;2023-05-16T00:12:34;102456.56;;;10.42;60.63
80333;BME280;69652;51.864;-2.246;2023-05-16T00:15:01;102460.56;;;10.34;59.74
80333;BME280;69652;51.864;-2.246;2023-05-16T00:17:26;102461.59;;;10.28;60.37
80333;BME280;69652;51.864;-2.246;2023-05-16T00:19:53;102456.41;;;10.27;60.34
80333;BME280;69652;51.864;-2.246;2023-05-16T00:22:25;102461.72;;;10.11;61.72
80333;BME280;69652;51.864;-2.246;2023-05-16T00:24:51;102467.13;;;10.11;60.34
80333;BME280;69652;51.864;-2.246;2023-05-16T00:27:17;102462.78;;;10.10;61.55
80333;BME280;69652;51.864;-2.246;2023-05-16T00:29:42;102459.19;;;10.05;61.20
80333;BME280;69652;51.864;-2.246;2023-05-16T00:32:08;102462.69;;;10.00;61.15
80333;BME280;69652;51.864;-2.246;2023-05-16T00:34:34;102467.47;;;9.93;62.12
80333;BME280;69652;51.864;-2.246;2023-05-16T00:36:59;102463.25;;;10.02;61.72
80333;BME280;69652;51.864;-2.246;2023-05-16T00:39:25;102454.00;;;10.03;62.26
80333;BME280;69652;51.864;-2.246;2023-05-16T00:41:50;102457.28;;;10.05;61.70
80333;BME280;69652;51.864;-2.246;2023-05-16T00:44:16;102453.75;;;10.05;61.71
80333;BME280;69652;51.864;-2.246;2023-05-16T00:46:42;102452.13;;;10.04;62.55
80333;BME280;69652;51.864;-2.246;2023-05-16T00:49:08;102451.31;;;10.03;61.93
80333;BME280;69652;51.864;-2.246;2023-05-16T00:51:34;102452.94;;;10.04;62.97
80333;BME280;69652;51.864;-2.246;2023-05-16T00:54:01;102445.28;;;9.96;63.00
80333;BME280;69652;51.864;-2.246;2023-05-16T00:56:27;102446.91;;;9.97;62.34
80333;BME280;69652;51.864;-2.246;2023-05-16T00:58:52;102443.72;;;10.05;61.74
80333;BME280;69652;51.864;-2.246;2023-05-16T01:01:19;102442.22;;;10.14;60.63
80333;BME280;69652;51.864;-2.246;2023-05-16T01:03:48;102446.00;;;10.13;60.78
80333;BME280;69652;51.864;-2.246;2023-05-16T01:06:13;102445.16;;;10.13;61.02
80333;BME280;69652;51.864;-2.246;2023-05-16T01:08:39;102441.09;;;10.15;61.03
80333;BME280;69652;51.864;-2.246;2023-05-16T01:16:38;102447.72;;;9.71;62.31
80333;BME280;69652;51.864;-2.246;2023-05-16T01:24:55;102458.00;;;9.42;62.65
80333;BME280;69652;51.864;-2.246;2023-05-16T01:27:26;102457.91;;;9.37;62.81
80333;BME280;69652;51.864;-2.246;2023-05-16T01:29:57;102461.91;;;9.29;63.54
80333;BME280;69652;51.864;-2.246;2023-05-16T01:32:22;102461.13;;;9.12;63.50
80333;BME280;69652;51.864;-2.246;2023-05-16T01:34:49;102461.00;;;9.02;63.23
80333;BME280;69652;51.864;-2.246;2023-05-16T01:37:24;102454.69;;;8.96;64.02
80333;BME280;69652;51.864;-2.246;2023-05-16T01:40:02;102460.84;;;8.92;62.43
80333;BME280;69652;51.864;-2.246;2023-05-16T01:42:34;102460.53;;;8.88;63.45
80333;BME280;69652;51.864;-2.246;2023-05-16T01:45:28;102453.16;;;8.84;64.25
80333;BME280;69652;51.864;-2.246;2023-05-16T01:48:14;102456.19;;;8.87;65.82
80333;BME280;69652;51.864;-2.246;2023-05-16T01:50:48;102463.91;;;8.95;65.52
80333;BME280;69652;51.864;-2.246;2023-05-16T01:53:19;102468.16;;;8.91;64.63
80333;BME280;69652;51.864;-2.246;2023-05-16T01:55:55;102460.13;;;8.96;64.29
80333;BME280;69652;51.864;-2.246;2023-05-16T01:58:24;102457.78;;;9.05;62.79
80333;BME280;69652;51.864;-2.246;2023-05-16T02:00:53;102462.31;;;8.99;63.35
80333;BME280;69652;51.864;-2.246;2023-05-16T02:03:19;102461.25;;;9.00;63.54
80333;BME280;69652;51.864;-2.246;2023-05-16T02:05:44;102451.66;;;8.93;63.07
80333;BME280;69652;51.864;-2.246;2023-05-16T02:08:10;102448.38;;;8.91;62.26
80333;BME280;69652;51.864;-2.246;2023-05-16T02:10:35;102455.88;;;8.84;62.88
80333;BME280;69652;51.864;-2.246;2023-05-16T02:13:01;102456.41;;;8.86;63.83
80333;BME280;69652;51.864;-2.246;2023-05-16T02:15:26;102448.81;;;8.83;63.84
80333;BME280;69652;51.864;-2.246;2023-05-16T02:17:53;102459.31;;;8.79;63.98
80333;BME280;69652;51.864;-2.246;2023-05-16T02:20:18;102461.53;;;8.82;63.77
80333;BME280;69652;51.864;-2.246;2023-05-16T02:22:44;102459.06;;;8.81;63.59
80333;BME280;69652;51.864;-2.246;2023-05-16T02:25:13;102466.72;;;8.84;63.90
80333;BME280;69652;51.864;-2.246;2023-05-16T02:27:39;102456.13;;;8.82;63.37
80333;BME280;69652;51.864;-2.246;2023-05-16T02:30:06;102457.34;;;8.75;63.90
80333;BME280;69652;51.864;-2.246;2023-05-16T02:32:31;102462.22;;;8.73;64.40
80333;BME280;69652;51.864;-2.246;2023-05-16T02:34:58;102455.69;;;8.74;64.15
80333;BME280;69652;51.864;-2.246;2023-05-16T02:37:23;102460.38;;;8.78;64.71
80333;BME280;69652;51.864;-2.246;2023-05-16T02:39:48;102469.25;;;8.74;64.88
80333;BME280;69652;51.864;-2.246;2023-05-16T02:42:14;102463.66;;;8.80;63.68
80333;BME280;69652;51.864;-2.246;2023-05-16T02:44:39;102467.53;;;8.67;64.51
80333;BME280;69652;51.864;-2.246;2023-05-16T02:47:05;102468.59;;;8.66;65.53
80333;BME280;69652;51.864;-2.246;2023-05-16T02:49:30;102470.50;;;8.66;65.90
80333;BME280;69652;51.864;-2.246;2023-05-16T02:51:56;102470.25;;;8.67;64.78
80333;BME280;69652;51.864;-2.246;2023-05-16T02:54:22;102466.97;;;8.65;64.50
80333;BME280;69652;51.864;-2.246;2023-05-16T02:56:47;102469.66;;;8.65;64.26
80333;BME280;69652;51.864;-2.246;2023-05-16T02:59:12;102473.94;;;8.61;63.71
80333;BME280;69652;51.864;-2.246;2023-05-16T03:01:38;102471.50;;;8.60;64.67
80333;BME280;69652;51.864;-2.246;2023-05-16T03:04:03;102470.91;;;8.58;63.96
80333;BME280;69652;51.864;-2.246;2023-05-16T03:06:29;102467.81;;;8.49;64.35
80333;BME280;69652;51.864;-2.246;2023-05-16T03:08:54;102463.13;;;8.45;64.95
80333;BME280;69652;51.864;-2.246;2023-05-16T03:11:20;102469.25;;;8.40;65.30
80333;BME280;69652;51.864;-2.246;2023-05-16T03:13:46;102460.66;;;8.43;65.69
80333;BME280;69652;51.864;-2.246;2023-05-16T03:16:12;102463.19;;;8.50;65.24
80333;BME280;69652;51.864;-2.246;2023-05-16T03:18:37;102463.53;;;8.53;62.63
80333;BME280;69652;51.864;-2.246;2023-05-16T03:21:03;102460.09;;;8.58;63.65
80333;BME280;69652;51.864;-2.246;2023-05-16T03:23:29;102463.72;;;8.47;64.78
80333;BME280;69652;51.864;-2.246;2023-05-16T03:25:54;102454.91;;;8.40;64.09
80333;BME280;69652;51.864;-2.246;2023-05-16T03:28:20;102461.38;;;8.39;64.39
80333;BME280;69652;51.864;-2.246;2023-05-16T03:30:46;102455.66;;;8.35;64.50
80333;BME280;69652;51.864;-2.246;2023-05-16T03:33:11;102458.66;;;8.22;64.78
80333;BME280;69652;51.864;-2.246;2023-05-16T03:35:37;102461.94;;;8.24;65.35
80333;BME280;69652;51.864;-2.246;2023-05-16T03:38:03;102459.00;;;8.25;65.50
80333;BME280;69652;51.864;-2.246;2023-05-16T03:40:28;102458.19;;;8.25;64.89
80333;BME280;69652;51.864;-2.246;2023-05-16T03:42:54;102457.59;;;8.23;65.66
80333;BME280;69652;51.864;-2.246;2023-05-16T03:45:19;102457.84;;;8.21;65.51
80333;BME280;69652;51.864;-2.246;2023-05-16T03:47:45;102459.00;;;8.25;65.24
80333;BME280;69652;51.864;-2.246;2023-05-16T03:50:12;102460.88;;;8.25;64.96
80333;BME280;69652;51.864;-2.246;2023-05-16T03:52:38;102462.19;;;8.22;64.44
80333;BME280;69652;51.864;-2.246;2023-05-16T03:55:04;102455.78;;;8.28;63.74
80333;BME280;69652;51.864;-2.246;2023-05-16T03:57:31;102454.13;;;8.27;63.30
80333;BME280;69652;51.864;-2.246;2023-05-16T03:59:57;102452.19;;;8.23;64.46
80333;BME280;69652;51.864;-2.246;2023-05-16T04:02:22;102450.94;;;8.30;63.13
80333;BME280;69652;51.864;-2.246;2023-05-16T04:04:48;102457.13;;;8.26;64.07
80333;BME280;69652;51.864;-2.246;2023-05-16T04:07:13;102455.97;;;8.22;65.03
80333;BME280;69652;51.864;-2.246;2023-05-16T04:09:39;102464.78;;;8.17;65.19
80333;BME280;69652;51.864;-2.246;2023-05-16T04:12:05;102462.19;;;8.22;64.26
80333;BME280;69652;51.864;-2.246;2023-05-16T04:14:31;102469.97;;;8.19;64.61
80333;BME280;69652;51.864;-2.246;2023-05-16T04:16:57;102473.16;;;8.16;64.48
80333;BME280;69652;51.864;-2.246;2023-05-16T04:19:22;102468.97;;;8.08;64.26
80333;BME280;69652;51.864;-2.246;2023-05-16T04:21:48;102469.22;;;8.07;64.71
80333;BME280;69652;51.864;-2.246;2023-05-16T04:24:13;102470.03;;;8.07;65.41
80333;BME280;69652;51.864;-2.246;2023-05-16T04:26:39;102478.56;;;7.99;65.21
80333;BME280;69652;51.864;-2.246;2023-05-16T04:29:04;102476.59;;;8.11;65.72
80333;BME280;69652;51.864;-2.246;2023-05-16T04:31:30;102476.59;;;8.11;64.32
80333;BME280;69652;51.864;-2.246;2023-05-16T04:33:56;102467.97;;;8.14;65.57
80333;BME280;69652;51.864;-2.246;2023-05-16T04:36:22;102472.00;;;8.12;64.09
80333;BME280;69652;51.864;-2.246;2023-05-16T04:38:48;102475.44;;;8.07;64.74
80333;BME280;69652;51.864;-2.246;2023-05-16T04:41:14;102483.56;;;8.07;65.39
80333;BME280;69652;51.864;-2.246;2023-05-16T04:43:39;102491.38;;;8.20;65.56
80333;BME280;69652;51.864;-2.246;2023-05-16T04:46:06;102486.59;;;8.27;64.99
80333;BME280;69652;51.864;-2.246;2023-05-16T04:48:32;102487.94;;;8.25;64.43
80333;BME280;69652;51.864;-2.246;2023-05-16T04:50:58;102489.88;;;8.13;64.81
80333;BME280;69652;51.864;-2.246;2023-05-16T04:53:23;102487.91;;;8.08;64.90
80333;BME280;69652;51.864;-2.246;2023-05-16T04:55:49;102489.06;;;8.12;65.19
80333;BME280;69652;51.864;-2.246;2023-05-16T04:58:14;102489.88;;;8.13;65.34
80333;BME280;69652;51.864;-2.246;2023-05-16T05:00:40;102496.25;;;8.07;64.03
80333;BME280;69652;51.864;-2.246;2023-05-16T05:03:06;102487.97;;;7.96;65.09
80333;BME280;69652;51.864;-2.246;2023-05-16T05:05:32;102491.97;;;7.94;64.59
80333;BME280;69652;51.864;-2.246;2023-05-16T05:07:58;102483.13;;;7.98;64.40
80333;BME280;69652;51.864;-2.246;2023-05-16T05:10:24;102494.28;;;8.02;64.69
80333;BME280;69652;51.864;-2.246;2023-05-16T05:12:51;102485.72;;;8.22;65.42
80333;BME280;69652;51.864;-2.246;2023-05-16T05:15:17;102496.06;;;8.25;64.57
80333;BME280;69652;51.864;-2.246;2023-05-16T05:17:43;102501.66;;;8.07;64.27
80333;BME280;69652;51.864;-2.246;2023-05-16T05:20:09;102496.84;;;8.09;63.99
80333;BME280;69652;51.864;-2.246;2023-05-16T05:22:35;102501.69;;;8.23;64.03
80333;BME280;69652;51.864;-2.246;2023-05-16T05:25:00;102507.84;;;8.19;64.74
80333;BME280;69652;51.864;-2.246;2023-05-16T05:27:26;102502.81;;;8.11;64.94
80333;BME280;69652;51.864;-2.246;2023-05-16T05:29:52;102505.13;;;8.19;63.81
80333;BME280;69652;51.864;-2.246;2023-05-16T05:32:17;102515.06;;;8.30;64.98
80333;BME280;69652;51.864;-2.246;2023-05-16T05:34:42;102504.22;;;8.13;64.59
80333;BME280;69652;51.864;-2.246;2023-05-16T05:37:08;102512.19;;;8.20;64.63
80333;BME280;69652;51.864;-2.246;2023-05-16T05:39:33;102518.31;;;8.44;63.85
80333;BME280;69652;51.864;-2.246;2023-05-16T05:42:00;102513.47;;;8.46;63.84
80333;BME280;69652;51.864;-2.246;2023-05-16T05:44:27;102523.97;;;8.42;63.53
80333;BME280;69652;51.864;-2.246;2023-05-16T05:46:53;102518.72;;;8.52;63.81
80333;BME280;69652;51.864;-2.246;2023-05-16T05:49:19;102516.50;;;8.66;62.70
80333;BME280;69652;51.864;-2.246;2023-05-16T05:51:45;102524.47;;;8.73;63.07
80333;BME280;69652;51.864;-2.246;2023-05-16T05:54:10;102527.00;;;8.79;63.07
80333;BME280;69652;51.864;-2.246;2023-05-16T05:56:36;102522.06;;;8.76;62.84
80333;BME280;69652;51.864;-2.246;2023-05-16T05:59:01;102528.41;;;8.65;62.31
80333;BME280;69652;51.864;-2.246;2023-05-16T06:01:26;102528.31;;;8.77;62.99
80333;BME280;69652;51.864;-2.246;2023-05-16T06:03:52;102530.44;;;8.75;62.57
80333;BME280;69652;51.864;-2.246;2023-05-16T06:06:18;102538.31;;;8.76;61.59
80333;BME280;69652;51.864;-2.246;2023-05-16T06:08:43;102537.59;;;8.81;62.15
80333;BME280;69652;51.864;-2.246;2023-05-16T06:11:09;102542.44;;;8.79;62.80
80333;BME280;69652;51.864;-2.246;2023-05-16T06:13:34;102544.31;;;8.78;62.85
80333;BME280;69652;51.864;-2.246;2023-05-16T06:16:00;102547.03;;;8.95;61.25
80333;BME280;69652;51.864;-2.246;2023-05-16T06:18:25;102557.63;;;8.96;62.22
80333;BME280;69652;51.864;-2.246;2023-05-16T06:20:52;102547.56;;;8.97;61.18
80333;BME280;69652;51.864;-2.246;2023-05-16T06:23:17;102548.34;;;8.92;62.73
80333;BME280;69652;51.864;-2.246;2023-05-16T06:25:43;102549.78;;;9.00;62.24
80333;BME280;69652;51.864;-2.246;2023-05-16T06:28:08;102551.91;;;9.15;62.20
80333;BME280;69652;51.864;-2.246;2023-05-16T06:30:33;102559.81;;;9.16;61.00
80333;BME280;69652;51.864;-2.246;2023-05-16T06:32:59;102556.75;;;9.13;61.63
80333;BME280;69652;51.864;-2.246;2023-05-16T06:35:24;102562.03;;;9.19;62.67
80333;BME280;69652;51.864;-2.246;2023-05-16T06:37:50;102564.22;;;9.22;62.42
80333;BME280;69652;51.864;-2.246;2023-05-16T06:40:21;102564.34;;;9.32;60.98
80333;BME280;69652;51.864;-2.246;2023-05-16T06:42:47;102567.53;;;9.46;61.50
80333;BME280;69652;51.864;-2.246;2023-05-16T06:45:13;102559.84;;;9.60;60.82
80333;BME280;69652;51.864;-2.246;2023-05-16T06:47:38;102561.03;;;9.69;60.84
80333;BME280;69652;51.864;-2.246;2023-05-16T06:50:04;102561.38;;;9.72;61.37
80333;BME280;69652;51.864;-2.246;2023-05-16T06:52:30;102560.97;;;9.86;60.27
80333;BME280;69652;51.864;-2.246;2023-05-16T06:54:55;102565.34;;;9.87;60.58
80333;BME280;69652;51.864;-2.246;2023-05-16T06:57:21;102564.13;;;9.99;59.92
80333;BME280;69652;51.864;-2.246;2023-05-16T06:59:46;102566.63;;;10.06;60.70
80333;BME280;69652;51.864;-2.246;2023-05-16T07:02:11;102563.06;;;10.00;60.91
80333;BME280;69652;51.864;-2.246;2023-05-16T07:04:37;102569.66;;;10.09;61.49
80333;BME280;69652;51.864;-2.246;2023-05-16T07:07:03;102561.31;;;10.16;60.21
80333;BME280;69652;51.864;-2.246;2023-05-16T07:09:29;102565.03;;;10.32;59.57
80333;BME280;69652;51.864;-2.246;2023-05-16T07:11:55;102564.53;;;10.35;60.85
80333;BME280;69652;51.864;-2.246;2023-05-16T07:14:20;102560.28;;;10.44;60.11
80333;BME280;69652;51.864;-2.246;2023-05-16T07:16:46;102553.34;;;10.58;60.31
80333;BME280;69652;51.864;-2.246;2023-05-16T07:19:11;102550.72;;;10.68;61.00
80333;BME280;69652;51.864;-2.246;2023-05-16T07:21:37;102560.59;;;10.79;59.79
80333;BME280;69652;51.864;-2.246;2023-05-16T07:24:03;102560.63;;;10.84;59.57
80333;BME280;69652;51.864;-2.246;2023-05-16T07:26:28;102562.81;;;10.88;60.85
80333;BME280;69652;51.864;-2.246;2023-05-16T07:28:54;102568.59;;;10.96;60.22
80333;BME280;69652;51.864;-2.246;2023-05-16T07:31:19;102560.72;;;11.00;60.62
80333;BME280;69652;51.864;-2.246;2023-05-16T07:33:45;102562.16;;;11.07;60.08
80333;BME280;69652;51.864;-2.246;2023-05-16T07:36:13;102562.19;;;11.12;60.24
80333;BME280;69652;51.864;-2.246;2023-05-16T07:38:39;102558.69;;;11.17;60.36
80333;BME280;69652;51.864;-2.246;2023-05-16T07:41:04;102565.81;;;11.28;59.85
80333;BME280;69652;51.864;-2.246;2023-05-16T07:43:30;102567.00;;;11.42;60.28
80333;BME280;69652;51.864;-2.246;2023-05-16T07:45:56;102567.00;;;11.47;60.26
80333;BME280;69652;51.864;-2.246;2023-05-16T07:48:22;102555.91;;;11.59;59.88
80333;BME280;69652;51.864;-2.246;2023-05-16T07:50:47;102557.81;;;11.53;60.04
80333;BME280;69652;51.864;-2.246;2023-05-16T07:53:12;102564.63;;;11.61;60.20
80333;BME280;69652;51.864;-2.246;2023-05-16T07:55:38;102567.47;;;11.86;59.38
80333;BME280;69652;51.864;-2.246;2023-05-16T07:58:04;102556.13;;;12.10;58.32
80333;BME280;69652;51.864;-2.246;2023-05-16T08:00:29;102558.63;;;12.32;57.25
80333;BME280;69652;51.864;-2.246;2023-05-16T08:02:56;102561.09;;;12.48;56.74
80333;BME280;69652;51.864;-2.246;2023-05-16T08:05:22;102560.25;;;12.63;56.73
80333;BME280;69652;51.864;-2.246;2023-05-16T08:07:48;102563.56;;;12.60;55.63
80333;BME280;69652;51.864;-2.246;2023-05-16T08:10:13;102557.00;;;12.66;55.48
80333;BME280;69652;51.864;-2.246;2023-05-16T08:12:39;102561.91;;;12.79;55.32
80333;BME280;69652;51.864;-2.246;2023-05-16T08:15:05;102556.47;;;12.94;55.12
80333;BME280;69652;51.864;-2.246;2023-05-16T08:17:31;102557.53;;;12.98;54.62
80333;BME280;69652;51.864;-2.246;2023-05-16T08:19:57;102567.88;;;13.01;54.65
80333;BME280;69652;51.864;-2.246;2023-05-16T08:22:24;102558.09;;;13.21;54.45
80333;BME280;69652;51.864;-2.246;2023-05-16T08:24:49;102560.75;;;13.36;53.85
80333;BME280;69652;51.864;-2.246;2023-05-16T08:27:15;102561.53;;;13.52;53.09
80333;BME280;69652;51.864;-2.246;2023-05-16T08:29:40;102563.97;;;13.58;53.12
80333;BME280;69652;51.864;-2.246;2023-05-16T08:32:07;102557.91;;;13.71;52.61
80333;BME280;69652;51.864;-2.246;2023-05-16T08:34:34;102567.13;;;13.81;51.88
80333;BME280;69652;51.864;-2.246;2023-05-16T08:36:59;102564.09;;;13.92;52.10
80333;BME280;69652;51.864;-2.246;2023-05-16T08:39:25;102561.84;;;14.04;52.01
80333;BME280;69652;51.864;-2.246;2023-05-16T08:41:50;102563.91;;;14.28;51.56
80333;BME280;69652;51.864;-2.246;2023-05-16T08:44:16;102560.31;;;14.32;51.32
80333;BME280;69652;51.864;-2.246;2023-05-16T08:46:50;102567.00;;;14.11;51.61
80333;BME280;69652;51.864;-2.246;2023-05-16T08:49:17;102566.19;;;14.10;51.36
80333;BME280;69652;51.864;-2.246;2023-05-16T08:51:45;102566.47;;;14.09;53.81
80333;BME280;69652;51.864;-2.246;2023-05-16T08:54:13;102566.13;;;14.21;51.38
80333;BME280;69652;51.864;-2.246;2023-05-16T08:56:43;102567.91;;;14.45;52.13
80333;BME280;69652;51.864;-2.246;2023-05-16T08:59:10;102571.78;;;14.73;52.08
80333;BME280;69652;51.864;-2.246;2023-05-16T09:01:36;102562.69;;;14.83;51.26
80333;BME280;69652;51.864;-2.246;2023-05-16T09:04:07;102552.72;;;14.63;51.76
80333;BME280;69652;51.864;-2.246;2023-05-16T09:06:33;102552.22;;;14.61;51.37
80333;BME280;69652;51.864;-2.246;2023-05-16T09:08:59;102550.03;;;14.87;51.31
80333;BME280;69652;51.864;-2.246;2023-05-16T09:11:24;102551.06;;;14.96;50.36
80333;BME280;69652;51.864;-2.246;2023-05-16T09:13:50;102552.06;;;15.05;50.75
80333;BME280;69652;51.864;-2.246;2023-05-16T09:16:16;102550.78;;;14.98;50.38
80333;BME280;69652;51.864;-2.246;2023-05-16T09:18:44;102560.47;;;14.85;50.92
80333;BME280;69652;51.864;-2.246;2023-05-16T09:21:11;102549.38;;;15.00;50.66
80333;BME280;69652;51.864;-2.246;2023-05-16T09:23:36;102549.59;;;15.09;50.64
80333;BME280;69652;51.864;-2.246;2023-05-16T09:26:04;102548.09;;;15.22;50.08
80333;BME280;69652;51.864;-2.246;2023-05-16T09:28:31;102544.19;;;15.28;49.14
80333;BME280;69652;51.864;-2.246;2023-05-16T09:30:56;102550.34;;;15.38;50.15
80333;BME280;69652;51.864;-2.246;2023-05-16T09:33:27;102539.88;;;15.22;49.21
80333;BME280;69652;51.864;-2.246;2023-05-16T09:36:02;102546.75;;;15.19;50.72
80333;BME280;69652;51.864;-2.246;2023-05-16T09:38:28;102537.75;;;15.13;49.70
80333;BME280;69652;51.864;-2.246;2023-05-16T09:40:54;102542.66;;;15.16;50.60
80333;BME280;69652;51.864;-2.246;2023-05-16T09:43:25;102546.16;;;15.22;49.41
80333;BME280;69652;51.864;-2.246;2023-05-16T09:45:51;102544.06;;;15.14;50.35
80333;BME280;69652;51.864;-2.246;2023-05-16T09:48:17;102539.94;;;15.40;49.65
80333;BME280;69652;51.864;-2.246;2023-05-16T09:50:48;102553.19;;;15.57;48.97
80333;BME280;69652;51.864;-2.246;2023-05-16T09:53:23;102547.84;;;16.08;47.58
80333;BME280;69652;51.864;-2.246;2023-05-16T09:56:07;102549.91;;;15.98;48.16
80333;BME280;69652;51.864;-2.246;2023-05-16T09:58:36;102542.88;;;15.92;47.65
80333;BME280;69652;51.864;-2.246;2023-05-16T10:01:03;102533.38;;;15.84;48.08
80333;BME280;69652;51.864;-2.246;2023-05-16T10:03:29;102544.28;;;15.89;47.46
80333;BME280;69652;51.864;-2.246;2023-05-16T10:05:55;102551.50;;;16.55;45.82
80333;BME280;69652;51.864;-2.246;2023-05-16T10:08:21;102537.16;;;17.23;45.32
80333;BME280;69652;51.864;-2.246;2023-05-16T10:10:50;102548.00;;;16.87;45.50
80333;BME280;69652;51.864;-2.246;2023-05-16T10:13:19;102545.13;;;16.27;46.74
80333;BME280;69652;51.864;-2.246;2023-05-16T10:15:46;102538.53;;;16.79;46.64
80333;BME280;69652;51.864;-2.246;2023-05-16T10:18:12;102544.25;;;16.45;46.42
80333;BME280;69652;51.864;-2.246;2023-05-16T10:20:41;102541.03;;;16.62;46.13
80333;BME280;69652;51.864;-2.246;2023-05-16T10:23:08;102532.31;;;16.74;44.96
80333;BME280;69652;51.864;-2.246;2023-05-16T10:25:38;102538.78;;;16.64;48.23
80333;BME280;69652;51.864;-2.246;2023-05-16T10:28:06;102538.19;;;16.67;45.23
80333;BME280;69652;51.864;-2.246;2023-05-16T10:30:33;102550.28;;;16.47;46.84
80333;BME280;69652;51.864;-2.246;2023-05-16T10:33:02;102534.91;;;16.98;45.34
80333;BME280;69652;51.864;-2.246;2023-05-16T10:35:33;102540.84;;;17.73;43.29
80333;BME280;69652;51.864;-2.246;2023-05-16T10:37:59;102542.28;;;18.07;42.86
80333;BME280;69652;51.864;-2.246;2023-05-16T10:40:26;102543.09;;;17.44;43.85
80333;BME280;69652;51.864;-2.246;2023-05-16T10:42:56;102544.38;;;17.05;44.90
80333;BME280;69652;51.864;-2.246;2023-05-16T10:45:22;102544.63;;;16.90;45.53
80333;BME280;69652;51.864;-2.246;2023-05-16T10:47:58;102552.22;;;16.79;46.50
80333;BME280;69652;51.864;-2.246;2023-05-16T10:50:41;102533.63;;;16.76;45.49
80333;BME280;69652;51.864;-2.246;2023-05-16T10:53:17;102544.44;;;16.86;45.87
80333;BME280;69652;51.864;-2.246;2023-05-16T10:58:41;102540.09;;;17.13;45.30
80333;BME280;69652;51.864;-2.246;2023-05-16T11:01:25;102533.78;;;16.85;46.24
80333;BME280;69652;51.864;-2.246;2023-05-16T11:06:23;102541.06;;;18.13;45.89
80333;BME280;69652;51.864;-2.246;2023-05-16T11:14:27;102525.47;;;18.44;44.41
80333;BME280;69652;51.864;-2.246;2023-05-16T11:19:49;102525.22;;;19.47;41.46
80333;BME280;69652;51.864;-2.246;2023-05-16T11:25:02;102517.34;;;19.71;41.44
80333;BME280;69652;51.864;-2.246;2023-05-16T11:27:42;102531.28;;;18.87;40.68
80333;BME280;69652;51.864;-2.246;2023-05-16T11:30:11;102534.41;;;17.91;43.83
80333;BME280;69652;51.864;-2.246;2023-05-16T11:32:39;102528.63;;;17.79;43.91
80333;BME280;69652;51.864;-2.246;2023-05-16T11:35:07;102523.66;;;18.39;43.86
80333;BME280;69652;51.864;-2.246;2023-05-16T11:37:33;102511.28;;;19.04;42.85
80333;BME280;69652;51.864;-2.246;2023-05-16T11:40:04;102503.38;;;19.59;41.29
80333;BME280;69652;51.864;-2.246;2023-05-16T11:42:37;102512.03;;;20.09;40.48
80333;BME280;69652;51.864;-2.246;2023-05-16T11:45:08;102501.91;;;20.82;39.57
80333;BME280;69652;51.864;-2.246;2023-05-16T11:47:38;102498.97;;;20.87;38.66
80333;BME280;69652;51.864;-2.246;2023-05-16T11:50:10;102499.22;;;20.13;39.46
80333;BME280;69652;51.864;-2.246;2023-05-16T11:52:36;102511.75;;;20.37;41.19
80333;BME280;69652;51.864;-2.246;2023-05-16T11:55:07;102500.34;;;20.64;40.06
80333;BME280;69652;51.864;-2.246;2023-05-16T11:57:35;102491.81;;;20.86;40.45
80333;BME280;69652;51.864;-2.246;2023-05-16T12:00:14;102501.63;;;20.58;38.26
80333;BME280;69652;51.864;-2.246;2023-05-16T12:02:41;102500.00;;;20.31;39.63
80333;BME280;69652;51.864;-2.246;2023-05-16T12:05:08;102498.91;;;20.15;41.15
80333;BME280;69652;51.864;-2.246;2023-05-16T12:07:35;102496.50;;;20.39;40.53
80333;BME280;69652;51.864;-2.246;2023-05-16T12:10:08;102481.75;;;20.82;38.28
80333;BME280;69652;51.864;-2.246;2023-05-16T12:12:34;102489.81;;;21.84;38.06
80333;BME280;69652;51.864;-2.246;2023-05-16T12:15:04;102479.41;;;22.10;37.69
80333;BME280;69652;51.864;-2.246;2023-05-16T12:17:34;102485.19;;;20.79;37.19
80333;BME280;69652;51.864;-2.246;2023-05-16T12:20:01;102484.31;;;20.40;38.39
80333;BME280;69652;51.864;-2.246;2023-05-16T12:22:30;102485.28;;;21.00;39.12
80333;BME280;69652;51.864;-2.246;2023-05-16T12:24:58;102482.56;;;21.58;37.91
80333;BME280;69652;51.864;-2.246;2023-05-16T12:27:24;102480.78;;;20.78;37.44
80333;BME280;69652;51.864;-2.246;2023-05-16T12:29:50;102479.91;;;20.48;37.92
80333;BME280;69652;51.864;-2.246;2023-05-16T12:32:20;102482.03;;;19.73;39.54
80333;BME280;69652;51.864;-2.246;2023-05-16T12:34:49;102473.78;;;21.36;37.62
80333;BME280;69652;51.864;-2.246;2023-05-16T12:37:16;102480.38;;;22.59;35.83
80333;BME280;69652;51.864;-2.246;2023-05-16T12:39:42;102475.78;;;22.30;36.45
80333;BME280;69652;51.864;-2.246;2023-05-16T12:42:08;102463.94;;;22.75;35.18
80333;BME280;69652;51.864;-2.246;2023-05-16T12:44:34;102465.22;;;22.45;35.84
80333;BME280;69652;51.864;-2.246;2023-05-16T12:47:01;102460.47;;;23.63;33.69
80333;BME280;69652;51.864;-2.246;2023-05-16T12:49:26;102468.06;;;22.69;36.12
80333;BME280;69652;51.864;-2.246;2023-05-16T12:51:53;102476.97;;;22.09;36.74
80333;BME280;69652;51.864;-2.246;2023-05-16T12:54:20;102468.06;;;21.82;36.03
80333;BME280;69652;51.864;-2.246;2023-05-16T12:56:47;102475.25;;;22.82;35.68
80333;BME280;69652;51.864;-2.246;2023-05-16T12:59:13;102458.97;;;24.06;32.82
80333;BME280;69652;51.864;-2.246;2023-05-16T13:01:38;102455.25;;;24.73;32.38
80333;BME280;69652;51.864;-2.246;2023-05-16T13:04:05;102465.66;;;24.05;32.50
80333;BME280;69652;51.864;-2.246;2023-05-16T13:06:30;102468.47;;;23.16;34.09
80333;BME280;69652;51.864;-2.246;2023-05-16T13:08:56;102459.81;;;23.54;34.37
80333;BME280;69652;51.864;-2.246;2023-05-16T13:11:23;102453.84;;;25.11;32.04